Time;durP1;ratioP1;P1;durP2;ratioP2;P2;SDS_P1;SDS_P2;PMS_P1;PMS_P2;Temp;Humidity;BMP_temperature;BMP_pressure;BME280_temperature;BME280_humidity;BME280_pressure;Samples;Min_cycle;Max_cycle;Signal;HPM_P1;HPM_P2
2022/04/21 00:01:34;;;;;;;;;5.00;4.00;;;;;16.86;31.73;100552.19;5055623;28;46649;-64
2022/04/21 00:03:59;;;;;;;;;8.75;8.00;;;;;16.77;32.07;100542.81;5059984;28;45339;-64
2022/04/21 00:06:24;;;;;;;;;7.50;7.25;;;;;16.93;31.74;100560.75;5057718;28;45354;-64
2022/04/21 00:08:50;;;;;;;;;7.00;7.00;;;;;17.10;31.84;100592.06;5057907;28;45543;-64
2022/04/21 00:11:16;;;;;;;;;6.25;6.25;;;;;17.02;31.75;100579.03;5058810;28;45356;-64
2022/04/21 00:13:42;;;;;;;;;9.00;7.00;;;;;16.99;32.23;100573.84;5059899;28;45516;-64
2022/04/21 00:16:07;;;;;;;;;7.25;7.25;;;;;16.73;31.67;100533.16;5059295;28;45200;-64
2022/04/21 00:18:32;;;;;;;;;6.25;5.00;;;;;16.61;31.96;100515.91;5058107;28;45369;-64
2022/04/21 00:21:00;;;;;;;;;5.00;5.00;;;;;17.03;32.10;100581.63;5056907;28;46199;-64
2022/04/21 00:23:26;;;;;;;;;7.00;7.00;;;;;16.93;32.01;100569.69;5059620;28;45425;-64
2022/04/21 00:25:51;;;;;;;;;8.00;8.00;;;;;16.74;31.27;100545.69;5059335;28;45443;-64
2022/04/21 00:28:17;;;;;;;;;6.75;6.25;;;;;16.90;31.76;100563.63;5057537;28;45414;-64
2022/04/21 00:30:42;;;;;;;;;5.75;5.25;;;;;16.88;32.08;100568.25;5061504;28;47528;-64
2022/04/21 00:33:08;;;;;;;;;6.00;6.00;;;;;16.73;32.54;100535.00;5059631;28;45461;-64
2022/04/21 00:35:33;;;;;;;;;6.00;6.00;;;;;16.53;32.32;100504.72;5058283;28;46699;-64
2022/04/21 00:37:59;;;;;;;;;7.00;6.25;;;;;16.89;32.03;100570.88;5058095;28;45331;-64
2022/04/21 00:40:27;;;;;;;;;7.25;7.00;;;;;16.72;32.11;100533.25;5049169;28;45403;-64
2022/04/21 00:42:54;;;;;;;;;5.50;5.50;;;;;16.83;32.32;100553.19;5077661;27;45361;-64
2022/04/21 00:45:19;;;;;;;;;7.00;5.50;;;;;16.66;32.01;100518.34;5061726;28;45336;-64
2022/04/21 00:47:46;;;;;;;;;8.25;6.25;;;;;16.73;32.42;100543.94;5062976;28;45232;-64
2022/04/21 00:50:27;;;;;;;;;7.50;6.00;;;;;16.76;32.01;100556.38;5048128;28;45441;-64
2022/04/21 00:52:54;;;;;;;;;6.00;6.00;;;;;16.59;32.05;100525.91;5062924;28;45214;-64
2022/04/21 00:55:20;;;;;;;;;5.25;5.25;;;;;16.63;32.07;100537.38;5060595;28;45372;-66
2022/04/21 00:57:47;;;;;;;;;8.25;8.25;;;;;16.76;31.92;100559.06;5062781;28;45399;-64
2022/04/21 01:00:14;;;;;;;;;8.25;7.25;;;;;16.60;31.92;100538.41;5089270;27;47112;-65
2022/04/21 01:02:49;;;;;;;;;9.00;7.25;;;;;16.52;32.02;100521.84;5060845;28;45526;-64
2022/04/21 01:05:24;;;;;;;;;6.00;6.00;;;;;16.51;32.26;100527.34;5062712;28;45409;-64
2022/04/21 01:07:50;;;;;;;;;8.25;6.00;;;;;16.68;32.35;100549.59;5075054;28;45880;-64
2022/04/21 01:10:16;;;;;;;;;8.50;7.25;;;;;16.57;32.46;100518.88;5044268;28;47248;-64
2022/04/21 01:12:43;;;;;;;;;5.25;5.25;;;;;16.46;32.24;100506.94;5076047;28;45300;-64
2022/04/21 01:15:09;;;;;;;;;7.50;7.50;;;;;16.53;32.32;100526.28;5062773;28;45606;-64
2022/04/21 01:17:36;;;;;;;;;8.75;8.50;;;;;16.65;32.19;100546.22;5075614;28;45481;-64
2022/04/21 01:20:03;;;;;;;;;8.25;8.25;;;;;16.54;32.23;100524.44;5071258;28;47329;-64
2022/04/21 01:22:29;;;;;;;;;8.00;8.00;;;;;16.63;31.76;100527.44;5064169;28;46513;-64
2022/04/21 01:24:55;;;;;;;;;7.75;7.00;;;;;16.47;32.55;100513.19;5056251;28;45322;-64
2022/04/21 01:27:23;;;;;;;;;8.00;7.75;;;;;16.55;31.65;100535.13;5050139;28;45515;-64
2022/04/21 01:29:49;;;;;;;;;8.00;8.00;;;;;16.50;32.10;100529.16;5062332;28;45318;-64
2022/04/21 01:32:14;;;;;;;;;7.75;7.25;;;;;16.33;31.91;100505.09;5060470;28;45253;-64
2022/04/21 01:34:40;;;;;;;;;7.50;6.50;;;;;16.51;32.09;100539.00;5077515;28;45248;-64
2022/04/21 01:42:44;;;;;;;;;7.00;6.50;;;;;16.15;31.50;100497.13;5029811;28;45476;-64
2022/04/21 01:45:09;;;;;;;;;11.00;9.25;;;;;16.29;31.93;100521.41;5057729;28;45649;-64
2022/04/21 01:47:35;;;;;;;;;8.50;8.50;;;;;15.95;31.76;100462.47;5076890;28;46152;-64
2022/04/21 01:50:07;;;;;;;;;8.75;7.00;;;;;16.07;31.74;100494.03;5048994;28;46155;-64
2022/04/21 01:52:32;;;;;;;;;9.00;7.00;;;;;16.18;31.82;100506.88;5061748;28;45283;-64
2022/04/21 01:54:58;;;;;;;;;7.00;7.00;;;;;16.18;31.57;100513.09;5061835;28;45248;-64
2022/04/21 01:57:23;;;;;;;;;7.25;7.25;;;;;16.17;31.56;100513.19;5061155;28;45435;-64
2022/04/21 01:59:51;;;;;;;;;8.25;6.50;;;;;16.07;31.53;100499.41;5061758;28;45401;-64
2022/04/21 02:02:17;;;;;;;;;8.50;7.75;;;;;15.89;32.12;100486.09;5061598;28;45334;-64
2022/04/21 02:04:42;;;;;;;;;10.50;8.25;;;;;15.85;32.34;100465.69;5061854;28;45328;-64
2022/04/21 02:07:08;;;;;;;;;8.25;6.25;;;;;16.09;32.35;100514.53;5060777;28;45670;-64
2022/04/21 02:09:34;;;;;;;;;7.25;7.25;;;;;15.96;32.34;100488.44;5060216;28;45351;-64
2022/04/21 02:11:59;;;;;;;;;8.00;6.50;;;;;15.74;32.17;100452.84;5061561;28;45630;-64
2022/04/21 02:14:24;;;;;;;;;8.50;7.00;;;;;16.03;32.08;100492.47;5058675;28;45520;-64
2022/04/21 02:16:50;;;;;;;;;8.00;8.00;;;;;16.11;32.24;100507.22;5054607;28;45469;-64
2022/04/21 02:19:15;;;;;;;;;6.75;6.75;;;;;16.12;32.34;100505.38;5075750;27;48345;-64
2022/04/21 02:21:41;;;;;;;;;8.00;7.75;;;;;16.04;32.21;100489.72;5059912;28;45418;-64
2022/04/21 02:24:06;;;;;;;;;7.50;6.75;;;;;16.04;32.25;100488.84;5061481;28;45744;-64
2022/04/21 02:26:32;;;;;;;;;9.00;9.00;;;;;15.98;32.04;100486.50;5058636;28;45593;-64
2022/04/21 02:28:57;;;;;;;;;6.75;6.75;;;;;16.09;32.11;100494.81;5061295;28;46375;-64
2022/04/21 02:31:22;;;;;;;;;6.25;6.25;;;;;16.02;31.80;100488.94;5061509;28;45286;-64
2022/04/21 02:33:48;;;;;;;;;7.75;7.00;;;;;15.94;32.07;100485.81;5061089;28;45310;-64
2022/04/21 02:36:13;;;;;;;;;9.00;8.00;;;;;15.82;31.75;100473.97;5063043;28;45910;-64
2022/04/21 02:38:39;;;;;;;;;9.00;7.00;;;;;15.71;32.11;100460.22;5058315;28;46326;-64
2022/04/21 02:41:04;;;;;;;;;6.00;5.25;;;;;15.81;32.17;100472.22;5059515;28;45358;-64
2022/04/21 02:43:29;;;;;;;;;11.00;7.50;;;;;15.81;32.42;100477.59;5060893;28;45449;-64
2022/04/21 02:45:55;;;;;;;;;9.25;7.25;;;;;15.75;32.36;100461.75;5061228;28;45299;-64
2022/04/21 02:48:21;;;;;;;;;6.75;6.75;;;;;15.72;32.77;100449.38;5059989;28;46529;-64
2022/04/21 02:50:49;;;;;;;;;7.75;7.75;;;;;15.72;31.83;100456.59;5064199;28;45335;-64
2022/04/21 02:53:15;;;;;;;;;7.00;7.00;;;;;15.66;32.23;100451.56;5059733;28;45433;-64
2022/04/21 02:58:24;;;;;;;;;6.75;6.75;;;;;15.53;32.31;100435.25;5060166;28;45399;-64
2022/04/21 03:00:50;;;;;;;;;7.00;7.00;;;;;15.77;32.51;100461.72;5052040;28;45394;-64
2022/04/21 03:03:15;;;;;;;;;8.00;6.00;;;;;15.52;32.40;100412.00;5055020;28;45321;-64
2022/04/21 03:05:42;;;;;;;;;6.50;6.50;;;;;15.84;32.48;100466.66;5049462;28;46156;-64
2022/04/21 03:08:07;;;;;;;;;8.25;6.50;;;;;15.85;32.55;100470.19;5059515;28;45332;-64
2022/04/21 03:10:33;;;;;;;;;9.25;9.00;;;;;15.82;32.48;100468.56;5050560;28;45305;-64
2022/04/21 03:12:58;;;;;;;;;5.50;5.50;;;;;15.69;32.72;100448.69;5057670;28;45227;-64
2022/04/21 03:15:24;;;;;;;;;7.00;7.00;;;;;15.68;32.45;100437.03;5076103;28;45527;-64
2022/04/21 03:17:50;;;;;;;;;10.25;7.75;;;;;15.82;32.49;100451.53;5059821;28;45239;-64
2022/04/21 03:25:44;;;;;;;;;6.50;6.50;;;;;15.77;33.09;100443.75;5049263;28;45247;-64
2022/04/21 03:28:10;;;;;;;;;9.75;8.50;;;;;15.59;33.08;100405.31;5059533;28;47226;-64
2022/04/21 03:30:35;;;;;;;;;9.75;9.75;;;;;15.57;32.87;100397.31;5060376;28;45236;-64
2022/04/21 03:33:01;;;;;;;;;10.00;8.00;;;;;15.78;33.16;100431.16;5055169;28;45465;-64
2022/04/21 03:35:27;;;;;;;;;8.25;8.25;;;;;15.56;33.07;100398.28;5059951;28;45453;-64
2022/04/21 03:37:52;;;;;;;;;7.25;7.25;;;;;15.57;32.94;100415.31;5060255;28;45460;-64
2022/04/21 03:40:18;;;;;;;;;10.00;10.00;;;;;15.65;32.62;100425.59;5058458;28;45487;-64
2022/04/21 03:42:43;;;;;;;;;7.00;7.00;;;;;15.50;32.84;100408.53;5059572;28;45314;-64
2022/04/21 03:45:09;;;;;;;;;8.50;7.00;;;;;15.64;32.97;100440.88;5057619;28;45496;-64
2022/04/21 03:47:34;;;;;;;;;9.00;9.00;;;;;15.71;32.79;100453.00;5058755;28;47298;-64
2022/04/21 03:49:59;;;;;;;;;10.00;10.00;;;;;15.66;32.91;100440.78;5049913;28;45586;-64
2022/04/21 03:52:25;;;;;;;;;7.50;6.00;;;;;15.52;32.55;100415.56;5069034;28;45288;-64
2022/04/21 03:54:50;;;;;;;;;9.75;9.75;;;;;15.43;32.31;100415.22;5059764;28;45499;-64
2022/04/21 03:57:15;;;;;;;;;10.00;10.00;;;;;15.29;32.26;100413.34;5058667;28;46896;-64
2022/04/21 03:59:41;;;;;;;;;11.25;10.25;;;;;15.03;32.64;100388.78;5059970;28;45385;-64
2022/04/21 04:02:06;;;;;;;;;9.25;8.75;;;;;15.16;32.50;100405.94;5063080;28;45685;-64
2022/04/21 04:04:33;;;;;;;;;11.50;10.00;;;;;15.34;32.36;100452.44;5052171;28;45569;-64
2022/04/21 04:12:31;;;;;;;;;10.75;7.75;;;;;15.18;32.85;100446.19;5052093;28;45489;-64
2022/04/21 04:14:57;;;;;;;;;11.50;10.00;;;;;15.25;32.45;100455.66;5058169;28;45594;-64
2022/04/21 04:17:23;;;;;;;;;8.00;7.75;;;;;15.00;32.85;100416.72;5075461;28;48102;-64
2022/04/21 04:19:48;;;;;;;;;10.25;10.25;;;;;15.14;32.70;100444.66;5057561;28;45453;-65
2022/04/21 04:22:15;;;;;;;;;11.25;10.25;;;;;15.12;32.53;100442.03;5059728;28;45428;-64
2022/04/21 04:24:41;;;;;;;;;6.25;6.25;;;;;15.08;32.38;100444.97;5070919;28;45391;-65
2022/04/21 04:27:06;;;;;;;;;9.00;9.00;;;;;15.01;32.82;100442.63;5053062;28;46103;-64
2022/04/21 04:29:31;;;;;;;;;9.25;8.75;;;;;15.02;32.87;100451.59;5059848;28;45231;-64
2022/04/21 04:31:57;;;;;;;;;8.00;8.00;;;;;14.79;32.85;100405.34;5056618;28;45193;-64
2022/04/21 04:34:23;;;;;;;;;6.00;4.00;;;;;14.95;32.78;100447.47;5057915;28;45469;-64
2022/04/21 04:36:49;;;;;;;;;10.00;9.25;;;;;14.76;32.86;100421.63;5057947;28;46387;-64
2022/04/21 04:39:15;;;;;;;;;10.75;9.00;;;;;14.75;32.95;100425.28;5045838;28;45205;-64
2022/04/21 04:44:26;;;;;;;;;8.75;7.00;;;;;14.83;32.93;100449.03;5059370;28;45306;-65
2022/04/21 04:46:51;;;;;;;;;8.25;8.25;;;;;14.92;32.82;100474.53;5059108;28;46456;-65
2022/04/21 04:49:17;;;;;;;;;10.25;10.25;;;;;14.78;32.71;100461.84;5051600;28;45380;-64
2022/04/21 04:51:43;;;;;;;;;11.00;10.00;;;;;14.84;33.02;100474.94;5057164;28;45351;-64
2022/04/21 04:54:10;;;;;;;;;11.25;10.50;;;;;14.41;32.95;100405.56;5083698;27;45361;-64
2022/04/21 04:56:37;;;;;;;;;9.75;9.75;;;;;14.80;33.22;100476.94;5053879;28;46714;-65
2022/04/21 04:59:03;;;;;;;;;10.75;10.75;;;;;14.65;32.91;100467.03;5071865;27;46079;-64
2022/04/21 05:01:39;;;;;;;;;10.25;9.50;;;;;14.68;33.12;100463.28;5056922;28;45470;-64
2022/04/21 05:04:07;;;;;;;;;8.00;8.00;;;;;14.70;33.39;100467.66;5057984;28;45314;-64
2022/04/21 05:06:38;;;;;;;;;8.50;8.50;;;;;14.66;33.03;100463.38;5058948;28;45466;-64
2022/04/21 05:09:05;;;;;;;;;11.00;11.00;;;;;14.49;33.43;100436.53;5041669;28;45321;-64
2022/04/21 05:11:31;;;;;;;;;9.75;9.00;;;;;14.49;33.25;100441.91;5057455;28;45200;-64
2022/04/21 05:13:57;;;;;;;;;10.50;10.25;;;;;14.70;33.35;100483.78;5050686;28;45419;-64
2022/04/21 05:16:22;;;;;;;;;10.25;10.25;;;;;14.55;33.25;100449.63;5058686;28;46206;-64
2022/04/21 05:18:49;;;;;;;;;11.25;11.25;;;;;14.72;33.19;100481.00;5057704;28;45290;-73
2022/04/21 05:21:17;;;;;;;;;10.25;10.25;;;;;14.59;33.40;100454.78;5072043;28;45582;-70
2022/04/21 05:23:46;;;;;;;;;11.00;11.00;;;;;14.66;33.18;100476.81;5056722;28;45803;-70
2022/04/21 05:26:12;;;;;;;;;10.00;10.00;;;;;14.45;33.37;100449.25;5060863;28;47658;-70
2022/04/21 05:28:38;;;;;;;;;10.50;8.00;;;;;14.55;33.45;100469.31;5061247;28;45375;-70
2022/04/21 05:31:03;;;;;;;;;11.50;11.50;;;;;14.64;33.12;100482.25;5060431;28;45441;-71
2022/04/21 05:33:30;;;;;;;;;9.25;8.00;;;;;14.33;33.85;100444.53;5068135;27;45448;-71
2022/04/21 05:35:58;;;;;;;;;10.00;9.00;;;;;14.55;33.70;100484.53;5059579;28;45703;-71
2022/04/21 05:38:24;;;;;;;;;14.75;11.25;;;;;14.27;33.73;100443.03;5071855;27;45926;-71
2022/04/21 05:40:50;;;;;;;;;13.75;13.75;;;;;14.38;33.98;100437.09;5060989;28;45429;-70
2022/04/21 05:43:21;;;;;;;;;9.25;9.25;;;;;14.44;33.97;100448.38;5061074;28;45258;-70
2022/04/21 05:45:49;;;;;;;;;11.75;11.25;;;;;14.23;33.89;100425.34;5058959;28;46486;-71
2022/04/21 05:48:15;;;;;;;;;9.75;8.50;;;;;14.55;33.91;100474.69;5057557;28;46020;-68
2022/04/21 05:50:48;;;;;;;;;12.00;9.25;;;;;14.25;34.40;100428.84;5054898;28;45441;-69
2022/04/21 05:53:26;;;;;;;;;9.75;9.75;;;;;14.48;34.18;100472.38;5052235;28;45581;-68
2022/04/21 05:56:05;;;;;;;;;8.75;8.75;;;;;14.44;34.10;100464.47;5049520;28;45794;-69
2022/04/21 05:58:44;;;;;;;;;8.25;8.25;;;;;14.51;34.61;100477.59;5054832;28;45535;-69
2022/04/21 06:01:10;;;;;;;;;11.25;11.00;;;;;14.45;34.19;100462.69;5054454;28;47197;-69
2022/04/21 06:03:49;;;;;;;;;;;;;;;;;;;;;
2022/04/21 06:06:17;;;;;;;;;11.75;10.50;;;;;14.34;34.33;100454.31;5058039;28;75330;-69
2022/04/21 06:08:58;;;;;;;;;11.50;10.00;;;;;14.39;34.49;100463.88;5060617;28;46022;-69
2022/04/21 06:14:30;;;;;;;;;14.00;12.25;;;;;14.37;34.73;100467.59;5016592;28;45670;-69
2022/04/21 06:17:05;;;;;;;;;9.00;8.75;;;;;14.26;34.56;100447.53;5086631;27;47947;-69
2022/04/21 06:19:31;;;;;;;;;11.25;11.25;;;;;14.26;34.97;100450.22;5064488;28;45720;-68
2022/04/21 06:22:08;;;;;;;;;;;;;;;;;;;;;
2022/04/21 06:24:35;;;;;;;;;16.00;12.25;;;;;14.21;34.96;100464.81;5051255;28;73454;-67
2022/04/21 06:27:03;;;;;;;;;13.00;10.75;;;;;14.00;34.82;100422.06;5059360;28;45684;-70
2022/04/21 06:29:59;;;;;;;;;;;;;;;;;;;;;
2022/04/21 06:32:35;;;;;;;;;12.00;11.00;;;;;14.27;35.23;100467.19;5056621;28;68707;-68
2022/04/21 06:35:09;;;;;;;;;11.25;10.75;;;;;14.22;35.36;100451.31;5059660;28;45391;-68
2022/04/21 06:37:46;;;;;;;;;13.00;11.25;;;;;14.11;35.05;100426.84;5057621;28;48002;-68
2022/04/21 06:40:12;;;;;;;;;12.75;11.50;;;;;14.12;35.12;100430.44;5050536;28;45578;-64
2022/04/21 06:42:38;;;;;;;;;13.25;13.00;;;;;13.90;35.38;100415.44;5086754;27;45476;-64
2022/04/21 06:48:04;;;;;;;;;12.00;10.75;;;;;13.90;35.55;100427.03;5048226;28;45430;-64
2022/04/21 06:50:34;;;;;;;;;11.00;11.00;;;;;13.97;35.54;100424.91;5055860;28;45244;-65
2022/04/21 06:53:04;;;;;;;;;12.75;11.75;;;;;14.07;35.50;100444.94;5061071;28;45363;-64
2022/04/21 06:55:30;;;;;;;;;17.25;16.25;;;;;13.89;35.56;100422.59;5063647;28;45456;-65
2022/04/21 06:57:55;;;;;;;;;14.25;14.25;;;;;13.89;35.44;100427.97;5058259;28;47255;-64
2022/04/21 07:00:22;;;;;;;;;15.00;12.75;;;;;13.87;35.88;100429.00;5059136;28;45387;-64
2022/04/21 07:02:51;;;;;;;;;11.00;8.75;;;;;13.88;35.80;100425.34;5060650;28;45451;-64
2022/04/21 07:05:17;;;;;;;;;11.75;11.00;;;;;13.98;35.95;100445.44;5073466;27;45570;-64
2022/04/21 07:07:43;;;;;;;;;13.50;13.50;;;;;13.94;36.10;100433.09;5058705;28;45408;-65
2022/04/21 07:10:10;;;;;;;;;12.00;12.00;;;;;13.98;36.47;100437.38;5057832;28;45365;-65
2022/04/21 07:12:35;;;;;;;;;13.25;10.50;;;;;13.95;36.20;100431.28;5054669;28;45396;-65
2022/04/21 07:15:09;;;;;;;;;12.25;12.25;;;;;13.88;36.71;100410.16;5052365;28;45370;-64
2022/04/21 07:17:36;;;;;;;;;14.00;14.00;;;;;14.15;36.22;100446.34;5064273;28;45503;-64
2022/04/21 07:20:03;;;;;;;;;11.00;11.00;;;;;14.06;36.36;100429.78;5059200;28;45608;-64
2022/04/21 07:22:29;;;;;;;;;14.00;14.00;;;;;14.18;36.31;100443.50;5071641;28;45457;-64
2022/04/21 07:24:56;;;;;;;;;15.75;12.75;;;;;13.97;36.55;100406.13;5070345;28;45543;-64
2022/04/21 07:27:23;;;;;;;;;10.25;10.00;;;;;14.26;36.49;100436.78;5048963;28;46755;-64
2022/04/21 07:29:49;;;;;;;;;11.00;11.00;;;;;14.30;36.24;100432.16;5060140;28;45693;-64
2022/04/21 07:32:15;;;;;;;;;14.00;13.50;;;;;14.28;36.49;100425.97;5057463;28;45761;-64
2022/04/21 07:34:41;;;;;;;;;17.75;15.00;;;;;14.02;36.41;100374.53;5059885;28;45620;-64
2022/04/21 07:37:09;;;;;;;;;13.25;13.25;;;;;14.44;36.54;100429.56;5059107;28;46059;-64
2022/04/21 07:39:36;;;;;;;;;15.25;13.00;;;;;14.33;36.13;100407.78;5083755;27;45247;-64
2022/04/21 07:42:02;;;;;;;;;13.25;11.25;;;;;14.48;35.98;100432.09;5054989;28;45343;-64
2022/04/21 07:44:28;;;;;;;;;13.75;12.50;;;;;14.44;36.25;100429.56;5058047;28;45532;-64
2022/04/21 07:46:54;;;;;;;;;12.25;12.00;;;;;14.53;36.46;100435.41;5059379;28;47206;-64
2022/04/21 07:54:48;;;;;;;;;14.00;14.00;;;;;14.66;36.80;100433.81;5059569;28;45302;-64
2022/04/21 07:57:13;;;;;;;;;12.00;11.50;;;;;14.60;36.50;100432.34;5058172;28;47364;-64
2022/04/21 07:59:39;;;;;;;;;11.00;11.00;;;;;14.71;36.24;100434.44;5057918;28;45336;-64
2022/04/21 08:02:04;;;;;;;;;17.00;14.00;;;;;14.54;36.35;100402.25;5059202;28;45466;-64
2022/04/21 08:04:30;;;;;;;;;12.25;11.25;;;;;14.72;36.14;100425.44;5066777;28;45487;-64
2022/04/21 08:06:57;;;;;;;;;12.50;12.00;;;;;14.82;36.22;100434.72;5056852;28;45530;-64
2022/04/21 08:09:22;;;;;;;;;15.50;13.75;;;;;14.56;36.25;100389.59;5057744;28;45533;-64
2022/04/21 08:11:48;;;;;;;;;14.25;14.25;;;;;14.83;36.37;100424.84;5059649;28;45490;-65
2022/04/21 08:14:16;;;;;;;;;11.75;11.75;;;;;14.92;36.13;100437.78;5057090;28;45415;-65
2022/04/21 08:16:43;;;;;;;;;16.75;15.00;;;;;14.88;36.13;100421.91;5075684;27;47466;-65
2022/04/21 08:19:09;;;;;;;;;13.75;13.50;;;;;14.75;36.08;100406.47;5058168;28;46095;-65
2022/04/21 08:21:34;;;;;;;;;14.75;12.50;;;;;14.73;36.13;100399.44;5059170;28;45464;-64
2022/04/21 08:32:33;;;;;;;;;12.25;12.00;;;;;15.05;36.36;100439.78;5059699;28;45500;-64
2022/04/21 08:34:57;;;;;;;;;16.50;14.00;;;;;15.12;36.12;100423.22;5047823;28;45541;-64
2022/04/21 08:37:23;;;;;;;;;14.50;13.00;;;;;15.10;36.01;100421.56;5070957;28;46056;-64
2022/04/21 08:39:48;;;;;;;;;13.00;13.00;;;;;15.12;36.30;100423.22;5085056;27;45371;-64
2022/04/21 08:42:15;;;;;;;;;11.75;11.75;;;;;15.15;36.40;100414.09;5051860;28;45322;-64
2022/04/21 08:44:44;;;;;;;;;14.00;13.00;;;;;15.06;36.37;100391.31;5053942;28;45562;-64
2022/04/21 08:54:02;;;;;;;;;;;;;;;;;;;;;
2022/04/21 08:56:49;;;;;;;;;12.75;10.00;;;;;15.53;36.08;100436.09;5051170;28;72848;-71
2022/04/21 08:59:15;;;;;;;;;12.00;12.00;;;;;15.49;36.09;100426.50;5046995;28;48264;-64
2022/04/21 09:01:40;;;;;;;;;16.25;14.75;;;;;15.60;35.68;100438.44;5056762;28;45952;-65
2022/04/21 09:04:06;;;;;;;;;12.75;12.75;;;;;15.55;35.67;100438.72;5063408;28;45363;-64
2022/04/21 09:06:37;;;;;;;;;16.75;12.50;;;;;15.40;36.09;100413.56;5060795;28;46043;-64
2022/04/21 09:09:17;;;;;;;;;17.75;13.75;;;;;15.43;35.77;100408.00;5061872;28;45927;-64
2022/04/21 09:11:44;;;;;;;;;16.00;13.00;;;;;15.63;35.84;100449.03;5059518;28;45466;-64
2022/04/21 09:14:16;;;;;;;;;14.25;14.25;;;;;15.56;35.63;100429.69;5059302;28;45436;-64
2022/04/21 09:16:42;;;;;;;;;10.75;10.75;;;;;15.51;36.43;100405.75;5045941;28;45538;-65
2022/04/21 09:19:07;;;;;;;;;13.25;13.00;;;;;15.62;36.14;100412.31;5061167;28;46199;-64
2022/04/21 09:21:40;;;;;;;;;17.75;14.75;;;;;15.55;35.97;100393.88;5066310;28;45798;-64
2022/04/21 09:24:26;;;;;;;;;13.75;11.75;;;;;15.82;36.18;100424.63;5058481;28;45456;-64
2022/04/21 09:26:53;;;;;;;;;12.50;11.50;;;;;15.76;36.41;100409.72;5052828;28;45538;-64
2022/04/21 09:29:37;;;;;;;;;15.25;14.00;;;;;15.75;36.41;100389.09;5057746;28;47188;-64
2022/04/21 09:32:04;;;;;;;;;14.00;13.00;;;;;15.91;36.05;100399.88;5056879;28;45729;-64
2022/04/21 09:34:30;;;;;;;;;11.25;11.25;;;;;15.83;36.84;100383.31;5061230;28;45261;-64
2022/04/21 09:36:59;;;;;;;;;14.25;13.25;;;;;16.08;37.07;100406.91;5059589;28;45485;-64
2022/04/21 09:39:27;;;;;;;;;16.75;15.25;;;;;16.15;36.27;100399.34;5067906;28;47571;-64
2022/04/21 09:41:56;;;;;;;;;9.50;8.75;;;;;16.25;35.86;100400.50;5061422;28;45615;-64
2022/04/21 09:47:18;;;;;;;;;15.00;15.00;;;;;16.30;35.59;100415.44;5050327;28;45650;-65
2022/04/21 09:49:44;;;;;;;;;16.50;16.50;;;;;16.21;35.88;100394.44;5042570;28;48052;-64
2022/04/21 09:52:10;;;;;;;;;15.25;13.75;;;;;16.31;35.63;100383.97;5059831;28;45479;-64
2022/04/21 09:54:36;;;;;;;;;13.75;13.00;;;;;16.32;35.95;100380.28;5060698;28;45488;-64
2022/04/21 09:57:02;;;;;;;;;16.75;15.00;;;;;16.18;35.53;100351.53;5060831;28;45464;-64
2022/04/21 09:59:28;;;;;;;;;18.75;17.25;;;;;16.35;35.77;100369.34;5061142;28;45276;-64
2022/04/21 10:01:54;;;;;;;;;16.75;16.25;;;;;16.55;35.26;100386.09;5061001;28;45552;-64
2022/04/21 10:04:20;;;;;;;;;12.75;12.25;;;;;16.40;35.19;100350.19;5061460;28;45291;-64
2022/04/21 10:06:47;;;;;;;;;15.25;15.25;;;;;16.64;34.98;100381.00;5060843;28;45600;-64
2022/04/21 10:09:18;;;;;;;;;14.25;14.00;;;;;16.66;34.98;100378.19;5060957;28;46290;-64
2022/04/21 10:11:43;;;;;;;;;18.00;16.25;;;;;16.77;34.51;100380.19;5060870;28;45397;-64
2022/04/21 10:14:17;;;;;;;;;16.50;15.75;;;;;16.80;34.53;100374.59;5058245;28;45555;-64
2022/04/21 10:16:43;;;;;;;;;15.50;13.50;;;;;16.60;34.80;100341.72;5056036;28;45355;-64
2022/04/21 10:19:11;;;;;;;;;12.00;11.75;;;;;16.84;34.31;100370.78;5055803;28;45449;-64
2022/04/21 10:21:42;;;;;;;;;15.50;13.75;;;;;16.78;34.19;100346.91;5054647;28;45334;-64
2022/04/21 10:24:09;;;;;;;;;14.50;14.50;;;;;16.78;34.26;100336.97;5055416;28;45477;-64
2022/04/21 10:26:35;;;;;;;;;15.25;14.00;;;;;17.03;33.95;100360.53;5059863;28;45386;-64
2022/04/21 10:29:10;;;;;;;;;15.50;15.50;;;;;17.03;33.85;100344.34;5055586;28;47508;-64
2022/04/21 10:31:49;;;;;;;;;16.25;13.25;;;;;17.09;33.90;100355.69;5053952;28;45561;-65
2022/04/21 10:34:27;;;;;;;;;13.00;13.00;;;;;16.93;33.86;100315.41;5071012;28;45433;-64
2022/04/21 10:37:15;;;;;;;;;16.25;15.75;;;;;17.23;33.40;100345.72;5058767;28;45565;-64
2022/04/21 10:40:10;;;;;;;;;16.00;15.00;;;;;17.27;33.58;100345.53;5059362;28;46046;-64
2022/04/21 10:43:03;;;;;;;;;14.00;13.00;;;;;17.37;33.65;100335.84;5058758;28;45363;-65
2022/04/21 10:45:32;;;;;;;;;19.00;16.25;;;;;17.17;33.55;100319.19;5057568;28;45694;-65
2022/04/21 10:48:06;;;;;;;;;17.25;16.25;;;;;17.23;33.18;100317.91;5075365;28;46088;-65
2022/04/21 10:50:33;;;;;;;;;11.50;10.75;;;;;17.22;33.54;100321.56;5053571;28;45407;-64
2022/04/21 10:58:36;;;;;;;;;14.75;13.00;;;;;17.64;32.97;100327.72;5058219;28;45534;-64
2022/04/21 11:01:18;;;;;;;;;14.00;13.00;;;;;17.63;32.92;100309.81;5058993;28;46538;-64
2022/04/21 11:03:45;;;;;;;;;17.50;16.50;;;;;17.75;32.34;100335.09;5046242;28;45331;-64
2022/04/21 11:06:15;;;;;;;;;15.25;14.00;;;;;17.88;32.81;100345.94;5057654;28;45362;-64
2022/04/21 11:08:44;;;;;;;;;17.00;15.75;;;;;17.80;31.98;100308.63;5058220;28;45532;-64
2022/04/21 11:11:47;;;;;;;;;15.50;15.25;;;;;17.90;32.31;100307.03;5058782;28;45246;-66
2022/04/21 11:14:28;;;;;;;;;14.50;13.00;;;;;17.82;32.11;100295.03;5058511;28;45494;-64
2022/04/21 11:16:54;;;;;;;;;14.25;14.25;;;;;18.04;32.53;100319.59;5058547;28;45711;-64
2022/04/21 11:19:29;;;;;;;;;17.00;15.25;;;;;18.09;31.78;100301.22;5040989;28;45566;-63
2022/04/21 11:21:57;;;;;;;;;15.50;15.00;;;;;18.03;31.90;100295.41;5045692;28;46582;-64
2022/04/21 11:24:23;;;;;;;;;14.00;12.75;;;;;18.05;31.81;100278.09;5055455;28;45816;-63
2022/04/21 11:26:56;;;;;;;;;8.50;8.50;;;;;18.14;31.91;100277.44;5051189;28;45455;-64
2022/04/21 11:29:22;;;;;;;;;17.75;15.00;;;;;18.31;31.46;100289.75;5050305;28;45550;-64
2022/04/21 11:31:48;;;;;;;;;12.75;12.75;;;;;18.02;31.66;100231.53;5054143;28;45691;-64
2022/04/21 11:34:24;;;;;;;;;15.00;12.25;;;;;18.25;31.28;100263.16;5053657;28;45790;-64
2022/04/21 11:36:53;;;;;;;;;10.25;8.75;;;;;18.31;31.35;100259.16;5050697;28;45677;-64
2022/04/21 11:39:19;;;;;;;;;15.50;13.50;;;;;18.52;31.35;100297.25;5049916;28;45460;-64
2022/04/21 11:41:46;;;;;;;;;13.75;13.75;;;;;18.46;31.31;100276.97;5070617;28;47577;-64
2022/04/21 11:44:23;;;;;;;;;15.50;13.50;;;;;18.17;31.15;100221.47;5049879;28;45898;-65
2022/04/21 11:46:49;;;;;;;;;13.50;12.50;;;;;18.44;30.75;100265.41;5055412;28;45644;-65
2022/04/21 11:49:14;;;;;;;;;11.75;10.75;;;;;18.48;30.26;100247.97;5050862;28;45519;-65
2022/04/21 11:51:41;;;;;;;;;17.75;15.75;;;;;18.46;30.67;100249.06;5056854;27;48337;-65
2022/04/21 11:54:08;;;;;;;;;11.75;11.50;;;;;18.80;30.28;100285.28;5058300;28;45724;-64
2022/04/21 11:56:33;;;;;;;;;14.25;12.00;;;;;18.84;30.03;100270.63;5053258;28;45458;-64
2022/04/21 11:59:10;;;;;;;;;13.75;11.75;;;;;18.74;30.38;100247.03;5059375;28;45524;-64
2022/04/21 12:07:38;;;;;;;;;14.25;11.00;;;;;18.72;29.13;100225.50;5043145;28;45497;-68
2022/04/21 12:10:06;;;;;;;;;12.00;12.00;;;;;18.76;29.56;100226.13;5039167;28;45456;-68
2022/04/21 12:12:42;;;;;;;;;11.25;10.75;;;;;19.06;29.75;100261.75;5048189;28;46066;-68
2022/04/21 12:19:11;;;;;;;;;13.75;12.00;;;;;19.03;29.57;100256.56;5044779;28;45985;-68
2022/04/21 12:45:36;;;;;;;;;11.25;10.00;;;;;19.22;29.83;100212.72;4884465;28;45973;-66
2022/04/21 12:48:04;;;;;;;;;11.75;9.25;;;;;19.34;30.13;100215.47;4929288;28;45635;-68
2022/04/21 12:50:32;;;;;;;;;13.25;12.75;;;;;19.34;29.79;100207.34;5009273;28;47444;-67
2022/04/21 12:52:57;;;;;;;;;12.00;11.75;;;;;19.41;29.98;100208.59;5034831;28;45704;-66
2022/04/21 12:55:25;;;;;;;;;10.75;7.50;;;;;19.53;30.19;100228.41;5057475;28;45527;-66
2022/04/21 12:58:26;;;;;;;;;9.50;8.00;;;;;19.58;30.23;100210.00;5052635;28;45593;-67